sensor_id;sensor_type;location;lat;lon;timestamp;pressure;altitude;pressure_sealevel;temperature;humidity
40730;BME280;26418;50.070;8.436;2022-12-07T00:00:26;100139.69;;;2.86;91.71
40730;BME280;26418;50.070;8.436;2022-12-07T00:02:51;100144.47;;;2.83;91.61
40730;BME280;26418;50.070;8.436;2022-12-07T00:05:17;100139.78;;;2.74;91.16
40730;BME280;26418;50.070;8.436;2022-12-07T00:07:42;100140.56;;;2.74;91.13
40730;BME280;26418;50.070;8.436;2022-12-07T00:10:08;100130.88;;;2.68;91.33
40730;BME280;26418;50.070;8.436;2022-12-07T00:12:33;100127.47;;;2.56;91.42
40730;BME280;26418;50.070;8.436;2022-12-07T00:14:59;100135.00;;;2.59;91.74
40730;BME280;26418;50.070;8.436;2022-12-07T00:17:24;100140.84;;;2.56;91.98
40730;BME280;26418;50.070;8.436;2022-12-07T00:19:50;100112.59;;;2.43;92.58
40730;BME280;26418;50.070;8.436;2022-12-07T00:22:15;100120.66;;;2.48;92.37
40730;BME280;26418;50.070;8.436;2022-12-07T00:24:41;100113.72;;;2.47;92.61
40730;BME280;26418;50.070;8.436;2022-12-07T00:27:06;100113.97;;;2.45;92.49
40730;BME280;26418;50.070;8.436;2022-12-07T00:29:31;100115.31;;;2.48;92.40
40730;BME280;26418;50.070;8.436;2022-12-07T00:31:57;100110.47;;;2.45;92.61
40730;BME280;26418;50.070;8.436;2022-12-07T00:34:22;100100.50;;;2.40;92.45
40730;BME280;26418;50.070;8.436;2022-12-07T00:36:48;100099.13;;;2.38;92.47
40730;BME280;26418;50.070;8.436;2022-12-07T00:39:14;100093.47;;;2.34;92.69
40730;BME280;26418;50.070;8.436;2022-12-07T00:41:39;100096.13;;;2.34;93.02
40730;BME280;26418;50.070;8.436;2022-12-07T00:44:05;100105.50;;;2.36;93.42
40730;BME280;26418;50.070;8.436;2022-12-07T00:46:31;100100.28;;;2.42;93.46
40730;BME280;26418;50.070;8.436;2022-12-07T00:48:56;100102.69;;;2.43;93.48
40730;BME280;26418;50.070;8.436;2022-12-07T00:51:23;100097.13;;;2.45;93.69
40730;BME280;26418;50.070;8.436;2022-12-07T00:53:50;100084.19;;;2.54;95.03
40730;BME280;26418;50.070;8.436;2022-12-07T00:56:18;100096.16;;;2.68;95.50
40730;BME280;26418;50.070;8.436;2022-12-07T00:58:49;100099.72;;;2.74;95.14
40730;BME280;26418;50.070;8.436;2022-12-07T01:01:15;100098.41;;;2.76;94.64
40730;BME280;26418;50.070;8.436;2022-12-07T01:03:41;100099.47;;;2.75;94.09
40730;BME280;26418;50.070;8.436;2022-12-07T01:06:06;100091.28;;;2.65;93.77
40730;BME280;26418;50.070;8.436;2022-12-07T01:08:32;100101.97;;;2.65;93.34
40730;BME280;26418;50.070;8.436;2022-12-07T01:11:07;100096.56;;;2.60;93.61
40730;BME280;26418;50.070;8.436;2022-12-07T01:13:35;100091.16;;;2.55;93.77
40730;BME280;26418;50.070;8.436;2022-12-07T01:16:03;100099.97;;;2.55;93.87
40730;BME280;26418;50.070;8.436;2022-12-07T01:18:33;100087.91;;;2.53;93.92
40730;BME280;26418;50.070;8.436;2022-12-07T01:21:02;100085.50;;;2.51;93.77
40730;BME280;26418;50.070;8.436;2022-12-07T01:23:29;100086.53;;;2.50;93.92
40730;BME280;26418;50.070;8.436;2022-12-07T01:26:01;100077.94;;;2.48;93.58
40730;BME280;26418;50.070;8.436;2022-12-07T01:28:30;100081.94;;;2.45;93.86
40730;BME280;26418;50.070;8.436;2022-12-07T01:31:12;100088.31;;;2.44;94.32
40730;BME280;26418;50.070;8.436;2022-12-07T01:33:41;100086.13;;;2.41;94.32
40730;BME280;26418;50.070;8.436;2022-12-07T01:36:22;100086.28;;;2.34;94.13
40730;BME280;26418;50.070;8.436;2022-12-07T01:38:49;100087.34;;;2.33;94.22
40730;BME280;26418;50.070;8.436;2022-12-07T01:41:19;100089.28;;;2.38;94.43
40730;BME280;26418;50.070;8.436;2022-12-07T01:44:12;100087.09;;;2.35;94.33
40730;BME280;26418;50.070;8.436;2022-12-07T01:46:39;100082.78;;;2.34;94.30
40730;BME280;26418;50.070;8.436;2022-12-07T01:49:06;100072.13;;;2.34;94.80
40730;BME280;26418;50.070;8.436;2022-12-07T01:51:34;100085.06;;;2.42;94.64
40730;BME280;26418;50.070;8.436;2022-12-07T01:54:00;100079.72;;;2.42;94.65
40730;BME280;26418;50.070;8.436;2022-12-07T01:56:27;100077.88;;;2.43;94.93
40730;BME280;26418;50.070;8.436;2022-12-07T01:58:54;100085.38;;;2.46;94.87
40730;BME280;26418;50.070;8.436;2022-12-07T02:01:21;100090.00;;;2.50;94.91
40730;BME280;26418;50.070;8.436;2022-12-07T02:03:47;100079.66;;;2.54;94.71
40730;BME280;26418;50.070;8.436;2022-12-07T02:06:17;100065.72;;;2.52;94.38
40730;BME280;26418;50.070;8.436;2022-12-07T02:08:45;100066.88;;;2.56;94.35
40730;BME280;26418;50.070;8.436;2022-12-07T02:11:11;100068.00;;;2.60;94.36
40730;BME280;26418;50.070;8.436;2022-12-07T02:13:39;100071.88;;;2.70;94.34
40730;BME280;26418;50.070;8.436;2022-12-07T02:34:39;100042.00;;;2.73;94.33
40730;BME280;26418;50.070;8.436;2022-12-07T02:40:39;100041.75;;;2.74;94.74
40730;BME280;26418;50.070;8.436;2022-12-07T02:43:16;100038.28;;;2.74;94.76
40730;BME280;26418;50.070;8.436;2022-12-07T02:45:44;100046.06;;;2.75;95.10
40730;BME280;26418;50.070;8.436;2022-12-07T02:48:13;100045.25;;;2.75;95.00
40730;BME280;26418;50.070;8.436;2022-12-07T02:50:53;100031.81;;;2.70;95.23
40730;BME280;26418;50.070;8.436;2022-12-07T02:53:41;100040.91;;;2.69;94.92
40730;BME280;26418;50.070;8.436;2022-12-07T02:58:54;100043.16;;;2.60;94.67
40730;BME280;26418;50.070;8.436;2022-12-07T03:04:34;100035.56;;;2.51;95.82
40730;BME280;26418;50.070;8.436;2022-12-07T03:09:48;100024.97;;;2.40;95.92
40730;BME280;26418;50.070;8.436;2022-12-07T03:12:26;100025.13;;;2.33;96.25
40730;BME280;26418;50.070;8.436;2022-12-07T03:15:05;100037.44;;;2.34;96.44
40730;BME280;26418;50.070;8.436;2022-12-07T03:17:35;100030.41;;;2.28;96.65
40730;BME280;26418;50.070;8.436;2022-12-07T03:20:04;100035.47;;;2.29;96.98
40730;BME280;26418;50.070;8.436;2022-12-07T03:22:34;100038.41;;;2.28;97.09
40730;BME280;26418;50.070;8.436;2022-12-07T03:25:05;100042.44;;;2.30;97.14
40730;BME280;26418;50.070;8.436;2022-12-07T03:27:34;100023.91;;;2.24;97.16
40730;BME280;26418;50.070;8.436;2022-12-07T03:30:17;100034.91;;;2.27;97.32
40730;BME280;26418;50.070;8.436;2022-12-07T03:41:04;100026.59;;;2.41;97.90
40730;BME280;26418;50.070;8.436;2022-12-07T03:43:31;100026.34;;;2.42;98.04
40730;BME280;26418;50.070;8.436;2022-12-07T03:51:49;100008.88;;;2.51;98.05
40730;BME280;26418;50.070;8.436;2022-12-07T03:54:28;100022.59;;;2.60;97.87
40730;BME280;26418;50.070;8.436;2022-12-07T03:56:57;100011.44;;;2.63;97.60
40730;BME280;26418;50.070;8.436;2022-12-07T03:59:24;100006.09;;;2.63;97.37
40730;BME280;26418;50.070;8.436;2022-12-07T04:01:56;100008.59;;;2.70;96.84
40730;BME280;26418;50.070;8.436;2022-12-07T04:04:23;100007.31;;;2.73;96.29
40730;BME280;26418;50.070;8.436;2022-12-07T04:06:49;99984.41;;;2.60;96.12
40730;BME280;26418;50.070;8.436;2022-12-07T04:09:16;100006.00;;;2.75;95.78
40730;BME280;26418;50.070;8.436;2022-12-07T04:11:42;100007.63;;;2.76;95.59
40730;BME280;26418;50.070;8.436;2022-12-07T04:14:07;99999.59;;;2.76;95.24
40730;BME280;26418;50.070;8.436;2022-12-07T04:19:15;100012.06;;;2.88;95.20
40730;BME280;26418;50.070;8.436;2022-12-07T04:21:41;99998.13;;;2.86;94.74
40730;BME280;26418;50.070;8.436;2022-12-07T04:24:07;100001.06;;;2.84;94.96
40730;BME280;26418;50.070;8.436;2022-12-07T04:26:33;100008.50;;;2.82;95.41
40730;BME280;26418;50.070;8.436;2022-12-07T04:28:58;99992.91;;;2.74;95.26
40730;BME280;26418;50.070;8.436;2022-12-07T04:31:24;100003.94;;;2.82;95.57
40730;BME280;26418;50.070;8.436;2022-12-07T04:33:49;100011.75;;;2.84;95.71
40730;BME280;26418;50.070;8.436;2022-12-07T04:36:15;100010.44;;;2.87;95.61
40730;BME280;26418;50.070;8.436;2022-12-07T04:38:41;100005.09;;;2.87;95.65
40730;BME280;26418;50.070;8.436;2022-12-07T04:41:07;100009.06;;;2.84;95.23
40730;BME280;26418;50.070;8.436;2022-12-07T04:43:34;100005.56;;;2.83;95.39
40730;BME280;26418;50.070;8.436;2022-12-07T04:46:00;100003.00;;;2.89;95.55
40730;BME280;26418;50.070;8.436;2022-12-07T04:48:25;99992.53;;;2.87;95.31
40730;BME280;26418;50.070;8.436;2022-12-07T04:50:51;99997.66;;;2.89;95.35
40730;BME280;26418;50.070;8.436;2022-12-07T04:53:16;100004.09;;;2.93;95.45
40730;BME280;26418;50.070;8.436;2022-12-07T04:55:42;99995.50;;;2.91;95.22
40730;BME280;26418;50.070;8.436;2022-12-07T04:58:08;99996.03;;;2.88;95.19
40730;BME280;26418;50.070;8.436;2022-12-07T05:00:34;99998.75;;;2.93;95.21
40730;BME280;26418;50.070;8.436;2022-12-07T05:02:59;100000.19;;;3.01;95.03
40730;BME280;26418;50.070;8.436;2022-12-07T05:05:25;100002.63;;;3.02;94.65
40730;BME280;26418;50.070;8.436;2022-12-07T05:07:51;100007.47;;;3.05;94.46
40730;BME280;26418;50.070;8.436;2022-12-07T05:10:16;100007.47;;;3.05;94.45
40730;BME280;26418;50.070;8.436;2022-12-07T05:12:42;99988.69;;;3.00;94.52
40730;BME280;26418;50.070;8.436;2022-12-07T05:15:08;99995.91;;;2.99;94.50
40730;BME280;26418;50.070;8.436;2022-12-07T05:17:33;100003.97;;;3.05;94.71
40730;BME280;26418;50.070;8.436;2022-12-07T05:19:59;100014.75;;;3.10;94.46
40730;BME280;26418;50.070;8.436;2022-12-07T05:22:24;99999.75;;;3.09;94.13
40730;BME280;26418;50.070;8.436;2022-12-07T05:24:54;99998.94;;;3.08;94.11
40730;BME280;26418;50.070;8.436;2022-12-07T05:27:20;100005.59;;;3.06;94.62
40730;BME280;26418;50.070;8.436;2022-12-07T05:29:45;99989.25;;;3.02;94.64
40730;BME280;26418;50.070;8.436;2022-12-07T05:32:11;100000.50;;;3.04;94.69
40730;BME280;26418;50.070;8.436;2022-12-07T05:34:37;100005.59;;;3.06;94.83
40730;BME280;26418;50.070;8.436;2022-12-07T05:37:02;100003.22;;;3.09;95.58
40730;BME280;26418;50.070;8.436;2022-12-07T05:39:28;99996.13;;;3.20;95.61
40730;BME280;26418;50.070;8.436;2022-12-07T05:41:53;99994.03;;;3.22;94.94
40730;BME280;26418;50.070;8.436;2022-12-07T05:44:38;99990.78;;;3.20;94.29
40730;BME280;26418;50.070;8.436;2022-12-07T05:47:04;100006.41;;;3.28;93.93
40730;BME280;26418;50.070;8.436;2022-12-07T05:49:30;100004.78;;;3.27;93.69
40730;BME280;26418;50.070;8.436;2022-12-07T05:51:56;99996.41;;;3.19;93.69
40730;BME280;26418;50.070;8.436;2022-12-07T05:54:21;100007.09;;;3.19;94.00
40730;BME280;26418;50.070;8.436;2022-12-07T05:56:47;100010.25;;;3.15;94.27
40730;BME280;26418;50.070;8.436;2022-12-07T05:59:12;99999.56;;;3.15;94.38
40730;BME280;26418;50.070;8.436;2022-12-07T06:01:52;100000.06;;;3.12;94.43
40730;BME280;26418;50.070;8.436;2022-12-07T06:04:18;100003.53;;;3.13;94.85
40730;BME280;26418;50.070;8.436;2022-12-07T06:06:44;99999.19;;;3.07;94.87
40730;BME280;26418;50.070;8.436;2022-12-07T06:09:10;100000.00;;;3.07;95.19
40730;BME280;26418;50.070;8.436;2022-12-07T06:11:36;99998.16;;;3.08;95.39
40730;BME280;26418;50.070;8.436;2022-12-07T06:14:20;99994.16;;;3.10;95.65
40730;BME280;26418;50.070;8.436;2022-12-07T06:16:45;100000.38;;;3.16;97.16
40730;BME280;26418;50.070;8.436;2022-12-07T06:19:11;99995.91;;;3.22;98.26
40730;BME280;26418;50.070;8.436;2022-12-07T06:21:37;99994.94;;;3.33;99.19
40730;BME280;26418;50.070;8.436;2022-12-07T06:24:03;100001.25;;;3.44;100.00
40730;BME280;26418;50.070;8.436;2022-12-07T06:26:28;100002.59;;;3.46;98.98
40730;BME280;26418;50.070;8.436;2022-12-07T06:28:54;100001.34;;;3.54;99.41
40730;BME280;26418;50.070;8.436;2022-12-07T06:31:20;100008.16;;;3.67;100.00
40730;BME280;26418;50.070;8.436;2022-12-07T06:33:46;100001.75;;;3.68;100.00
40730;BME280;26418;50.070;8.436;2022-12-07T06:36:11;99997.91;;;3.86;100.00
40730;BME280;26418;50.070;8.436;2022-12-07T06:38:37;99997.69;;;3.93;100.00
40730;BME280;26418;50.070;8.436;2022-12-07T06:41:03;99995.13;;;4.03;100.00
40730;BME280;26418;50.070;8.436;2022-12-07T06:43:29;99992.41;;;3.98;96.22
40730;BME280;26418;50.070;8.436;2022-12-07T06:45:55;99996.25;;;3.80;93.25
40730;BME280;26418;50.070;8.436;2022-12-07T06:48:20;100007.06;;;3.63;93.11
40730;BME280;26418;50.070;8.436;2022-12-07T06:50:47;100006.94;;;3.53;93.71
40730;BME280;26418;50.070;8.436;2022-12-07T06:53:13;100005.78;;;3.43;94.61
40730;BME280;26418;50.070;8.436;2022-12-07T06:55:39;100011.56;;;3.35;94.87
40730;BME280;26418;50.070;8.436;2022-12-07T06:58:05;100012.03;;;3.32;94.70
40730;BME280;26418;50.070;8.436;2022-12-07T07:00:30;100001.03;;;3.28;94.86
40730;BME280;26418;50.070;8.436;2022-12-07T07:02:56;100007.53;;;3.33;94.83
40730;BME280;26418;50.070;8.436;2022-12-07T07:05:22;100009.63;;;3.30;94.78
40730;BME280;26418;50.070;8.436;2022-12-07T07:07:51;100011.19;;;3.26;94.75
40730;BME280;26418;50.070;8.436;2022-12-07T07:10:16;100009.19;;;3.17;94.70
40730;BME280;26418;50.070;8.436;2022-12-07T07:12:42;100017.53;;;3.20;94.70
40730;BME280;26418;50.070;8.436;2022-12-07T07:15:08;100011.88;;;3.17;94.41
40730;BME280;26418;50.070;8.436;2022-12-07T07:17:34;100017.28;;;3.22;94.38
40730;BME280;26418;50.070;8.436;2022-12-07T07:20:00;100015.16;;;3.24;94.26
40730;BME280;26418;50.070;8.436;2022-12-07T07:22:25;100018.84;;;3.18;94.37
40730;BME280;26418;50.070;8.436;2022-12-07T07:24:51;100028.28;;;3.25;94.51
40730;BME280;26418;50.070;8.436;2022-12-07T07:27:17;100029.09;;;3.26;94.47
40730;BME280;26418;50.070;8.436;2022-12-07T07:29:42;100022.06;;;3.20;94.33
40730;BME280;26418;50.070;8.436;2022-12-07T07:32:08;100030.34;;;3.18;94.26
40730;BME280;26418;50.070;8.436;2022-12-07T07:34:33;100028.94;;;3.15;94.69
40730;BME280;26418;50.070;8.436;2022-12-07T07:36:59;100036.00;;;3.22;95.80
40730;BME280;26418;50.070;8.436;2022-12-07T07:39:25;100028.72;;;3.17;95.08
40730;BME280;26418;50.070;8.436;2022-12-07T07:41:50;100023.88;;;3.14;94.75
40730;BME280;26418;50.070;8.436;2022-12-07T07:44:16;100020.84;;;3.05;94.72
40730;BME280;26418;50.070;8.436;2022-12-07T07:46:42;100033.13;;;3.06;95.23
40730;BME280;26418;50.070;8.436;2022-12-07T07:49:09;100039.75;;;3.04;95.25
40730;BME280;26418;50.070;8.436;2022-12-07T07:51:36;100038.97;;;3.03;95.17
40730;BME280;26418;50.070;8.436;2022-12-07T07:54:02;100046.72;;;3.05;95.12
40730;BME280;26418;50.070;8.436;2022-12-07T07:56:27;100040.50;;;2.99;95.33
40730;BME280;26418;50.070;8.436;2022-12-07T07:58:53;100037.19;;;2.92;95.37
40730;BME280;26418;50.070;8.436;2022-12-07T08:01:19;100035.84;;;2.89;95.98
40730;BME280;26418;50.070;8.436;2022-12-07T08:03:46;100035.59;;;2.91;96.20
40730;BME280;26418;50.070;8.436;2022-12-07T08:06:12;100043.06;;;2.89;96.40
40730;BME280;26418;50.070;8.436;2022-12-07T08:08:37;100044.41;;;2.91;96.69
40730;BME280;26418;50.070;8.436;2022-12-07T08:11:08;100045.53;;;2.95;97.11
40730;BME280;26418;50.070;8.436;2022-12-07T08:13:34;100042.38;;;2.98;97.05
40730;BME280;26418;50.070;8.436;2022-12-07T08:16:07;100039.72;;;2.98;96.92
40730;BME280;26418;50.070;8.436;2022-12-07T08:18:38;100040.34;;;3.06;96.97
40730;BME280;26418;50.070;8.436;2022-12-07T08:21:05;100044.13;;;3.10;96.97
40730;BME280;26418;50.070;8.436;2022-12-07T08:23:31;100053.75;;;3.11;96.79
40730;BME280;26418;50.070;8.436;2022-12-07T08:26:02;100040.16;;;3.12;96.51
40730;BME280;26418;50.070;8.436;2022-12-07T08:28:29;100046.81;;;3.10;96.42
40730;BME280;26418;50.070;8.436;2022-12-07T08:31:02;100041.38;;;3.05;96.40
40730;BME280;26418;50.070;8.436;2022-12-07T08:33:28;100036.03;;;3.05;96.39
40730;BME280;26418;50.070;8.436;2022-12-07T08:35:54;100029.31;;;3.02;96.56
40730;BME280;26418;50.070;8.436;2022-12-07T08:38:20;100034.69;;;3.02;96.67
40730;BME280;26418;50.070;8.436;2022-12-07T08:40:56;100047.59;;;3.10;96.77
40730;BME280;26418;50.070;8.436;2022-12-07T08:43:22;100026.09;;;3.00;96.61
40730;BME280;26418;50.070;8.436;2022-12-07T08:45:53;100035.56;;;3.08;96.53
40730;BME280;26418;50.070;8.436;2022-12-07T08:48:21;100055.06;;;3.08;96.34
40730;BME280;26418;50.070;8.436;2022-12-07T08:50:50;100042.75;;;3.07;96.62
40730;BME280;26418;50.070;8.436;2022-12-07T08:53:16;100054.88;;;3.15;96.64
40730;BME280;26418;50.070;8.436;2022-12-07T08:55:43;100057.91;;;3.24;96.69
40730;BME280;26418;50.070;8.436;2022-12-07T08:58:10;100052.22;;;3.37;96.25
40730;BME280;26418;50.070;8.436;2022-12-07T09:00:35;100049.13;;;3.45;95.68
40730;BME280;26418;50.070;8.436;2022-12-07T09:03:01;100048.09;;;3.52;95.18
40730;BME280;26418;50.070;8.436;2022-12-07T09:05:27;100050.66;;;3.64;95.66
40730;BME280;26418;50.070;8.436;2022-12-07T09:07:56;100049.97;;;3.73;95.55
40730;BME280;26418;50.070;8.436;2022-12-07T09:10:23;100057.53;;;3.82;94.86
40730;BME280;26418;50.070;8.436;2022-12-07T09:12:48;100058.44;;;3.92;94.67
40730;BME280;26418;50.070;8.436;2022-12-07T09:15:17;100051.81;;;4.00;94.25
40730;BME280;26418;50.070;8.436;2022-12-07T09:17:43;100056.81;;;4.19;94.15
40730;BME280;26418;50.070;8.436;2022-12-07T09:20:09;100057.47;;;4.31;92.98
40730;BME280;26418;50.070;8.436;2022-12-07T09:22:35;100059.69;;;4.45;92.61
40730;BME280;26418;50.070;8.436;2022-12-07T09:25:01;100055.00;;;4.57;91.51
40730;BME280;26418;50.070;8.436;2022-12-07T09:27:27;100048.31;;;4.65;89.16
40730;BME280;26418;50.070;8.436;2022-12-07T09:29:53;100054.84;;;4.79;88.85
40730;BME280;26418;50.070;8.436;2022-12-07T09:32:18;100047.41;;;4.86;86.94
40730;BME280;26418;50.070;8.436;2022-12-07T09:34:44;100053.59;;;4.92;86.38
40730;BME280;26418;50.070;8.436;2022-12-07T09:37:09;100048.50;;;4.96;85.49
40730;BME280;26418;50.070;8.436;2022-12-07T09:39:38;100065.69;;;4.95;85.52
40730;BME280;26418;50.070;8.436;2022-12-07T09:42:05;100058.16;;;4.92;85.06
40730;BME280;26418;50.070;8.436;2022-12-07T09:44:32;100054.19;;;4.99;84.50
40730;BME280;26418;50.070;8.436;2022-12-07T09:46:58;100062.53;;;5.08;84.92
40730;BME280;26418;50.070;8.436;2022-12-07T09:49:27;100068.19;;;5.12;84.04
40730;BME280;26418;50.070;8.436;2022-12-07T09:54:41;100061.91;;;4.91;83.66
40730;BME280;26418;50.070;8.436;2022-12-07T09:57:11;100057.28;;;4.81;83.70
40730;BME280;26418;50.070;8.436;2022-12-07T09:59:38;100058.91;;;4.82;83.64
40730;BME280;26418;50.070;8.436;2022-12-07T10:02:28;100052.44;;;4.83;83.72
40730;BME280;26418;50.070;8.436;2022-12-07T10:04:57;100037.50;;;4.92;84.23
40730;BME280;26418;50.070;8.436;2022-12-07T10:07:23;100034.66;;;5.09;84.21
40730;BME280;26418;50.070;8.436;2022-12-07T10:09:49;100040.38;;;5.23;82.20
40730;BME280;26418;50.070;8.436;2022-12-07T10:12:15;100030.75;;;5.32;80.26
40730;BME280;26418;50.070;8.436;2022-12-07T10:14:54;100038.00;;;5.37;79.79
40730;BME280;26418;50.070;8.436;2022-12-07T10:17:31;100028.88;;;5.38;79.63
40730;BME280;26418;50.070;8.436;2022-12-07T10:20:18;100027.28;;;5.42;78.60
40730;BME280;26418;50.070;8.436;2022-12-07T10:22:58;100022.44;;;5.34;78.01
40730;BME280;26418;50.070;8.436;2022-12-07T10:25:28;100022.94;;;5.26;78.58
40730;BME280;26418;50.070;8.436;2022-12-07T10:30:59;100014.28;;;5.13;78.64
40730;BME280;26418;50.070;8.436;2022-12-07T10:33:50;100008.94;;;5.13;78.01
40730;BME280;26418;50.070;8.436;2022-12-07T10:38:47;100020.53;;;5.24;77.96
40730;BME280;26418;50.070;8.436;2022-12-07T10:41:16;100010.88;;;5.33;77.95
40730;BME280;26418;50.070;8.436;2022-12-07T10:43:49;100005.56;;;5.44;77.98
40730;BME280;26418;50.070;8.436;2022-12-07T10:57:08;99993.78;;;5.60;76.74
40730;BME280;26418;50.070;8.436;2022-12-07T11:00:02;99995.69;;;5.65;76.99
40730;BME280;26418;50.070;8.436;2022-12-07T11:02:49;99994.88;;;5.70;76.81
40730;BME280;26418;50.070;8.436;2022-12-07T11:08:34;99987.41;;;5.92;75.51
40730;BME280;26418;50.070;8.436;2022-12-07T11:17:00;99978.00;;;6.47;72.39
40730;BME280;26418;50.070;8.436;2022-12-07T11:22:04;99963.16;;;6.80;70.25
40730;BME280;26418;50.070;8.436;2022-12-07T11:27:42;99969.00;;;6.98;68.46
40730;BME280;26418;50.070;8.436;2022-12-07T11:30:23;99947.50;;;6.92;68.06
40730;BME280;26418;50.070;8.436;2022-12-07T11:36:02;99957.06;;;7.19;67.91
40730;BME280;26418;50.070;8.436;2022-12-07T11:41:45;99958.69;;;7.26;65.00
40730;BME280;26418;50.070;8.436;2022-12-07T11:47:08;99951.44;;;7.21;65.72
40730;BME280;26418;50.070;8.436;2022-12-07T11:52:30;99946.47;;;7.44;65.70
40730;BME280;26418;50.070;8.436;2022-12-07T11:54:58;99917.50;;;7.30;65.25
40730;BME280;26418;50.070;8.436;2022-12-07T11:57:39;99922.06;;;7.30;65.49
40730;BME280;26418;50.070;8.436;2022-12-07T12:00:15;99927.97;;;7.32;66.35
40730;BME280;26418;50.070;8.436;2022-12-07T12:03:02;99924.25;;;7.22;66.59
40730;BME280;26418;50.070;8.436;2022-12-07T12:05:29;99926.28;;;6.96;67.83
40730;BME280;26418;50.070;8.436;2022-12-07T12:08:23;99926.59;;;6.79;68.41
40730;BME280;26418;50.070;8.436;2022-12-07T12:14:13;99929.78;;;6.86;69.39
40730;BME280;26418;50.070;8.436;2022-12-07T12:19:37;99914.84;;;7.20;68.34
40730;BME280;26418;50.070;8.436;2022-12-07T12:22:37;99922.59;;;7.32;68.18
40730;BME280;26418;50.070;8.436;2022-12-07T12:25:07;99911.25;;;7.35;67.40
40730;BME280;26418;50.070;8.436;2022-12-07T12:27:39;99913.16;;;7.34;67.01
40730;BME280;26418;50.070;8.436;2022-12-07T12:30:30;99911.00;;;7.31;66.79
40730;BME280;26418;50.070;8.436;2022-12-07T12:33:22;99910.53;;;7.24;66.90
40730;BME280;26418;50.070;8.436;2022-12-07T12:47:58;99903.50;;;6.73;69.54
40730;BME280;26418;50.070;8.436;2022-12-07T12:50:24;99898.19;;;6.63;70.24
40730;BME280;26418;50.070;8.436;2022-12-07T12:52:51;99896.59;;;6.51;70.75
40730;BME280;26418;50.070;8.436;2022-12-07T12:55:18;99900.94;;;6.37;71.36
40730;BME280;26418;50.070;8.436;2022-12-07T12:58:25;99893.47;;;6.23;72.14
40730;BME280;26418;50.070;8.436;2022-12-07T13:00:38;99890.75;;;6.18;72.10
40730;BME280;26418;50.070;8.436;2022-12-07T13:03:04;99877.88;;;6.10;72.31
40730;BME280;26418;50.070;8.436;2022-12-07T13:05:30;99881.66;;;6.14;72.29
40730;BME280;26418;50.070;8.436;2022-12-07T13:08:01;99870.13;;;6.03;71.61
40730;BME280;26418;50.070;8.436;2022-12-07T13:28:39;99875.75;;;5.76;71.29
40730;BME280;26418;50.070;8.436;2022-12-07T13:33:49;99873.06;;;5.60;72.36
40730;BME280;26418;50.070;8.436;2022-12-07T13:36:22;99878.97;;;5.62;72.88
40730;BME280;26418;50.070;8.436;2022-12-07T13:38:54;99883.56;;;5.62;73.60
40730;BME280;26418;50.070;8.436;2022-12-07T13:41:22;99877.91;;;5.63;73.51
40730;BME280;26418;50.070;8.436;2022-12-07T13:46:14;99871.44;;;5.59;73.29
40730;BME280;26418;50.070;8.436;2022-12-07T13:48:47;99885.69;;;5.65;73.47
40730;BME280;26418;50.070;8.436;2022-12-07T13:51:22;99880.59;;;5.63;73.69
40730;BME280;26418;50.070;8.436;2022-12-07T13:53:50;99881.94;;;5.61;73.95
40730;BME280;26418;50.070;8.436;2022-12-07T13:56:16;99871.47;;;5.54;74.18
40730;BME280;26418;50.070;8.436;2022-12-07T13:58:42;99880.06;;;5.56;74.93
40730;BME280;26418;50.070;8.436;2022-12-07T14:01:07;99888.09;;;5.56;75.24
40730;BME280;26418;50.070;8.436;2022-12-07T14:03:34;99888.38;;;5.60;75.37
40730;BME280;26418;50.070;8.436;2022-12-07T14:08:30;99876.56;;;5.50;74.28
40730;BME280;26418;50.070;8.436;2022-12-07T14:10:56;99883.00;;;5.49;74.53
40730;BME280;26418;50.070;8.436;2022-12-07T14:13:36;99890.25;;;5.49;74.54
40730;BME280;26418;50.070;8.436;2022-12-07T14:16:21;99886.75;;;5.43;75.07
40730;BME280;26418;50.070;8.436;2022-12-07T14:18:47;99893.44;;;5.30;76.14
40730;BME280;26418;50.070;8.436;2022-12-07T14:23:39;99886.41;;;5.09;78.75
40730;BME280;26418;50.070;8.436;2022-12-07T14:26:11;99875.41;;;4.95;79.49
40730;BME280;26418;50.070;8.436;2022-12-07T14:28:37;99888.00;;;4.99;80.51
40730;BME280;26418;50.070;8.436;2022-12-07T14:31:03;99877.25;;;4.94;79.82
40730;BME280;26418;50.070;8.436;2022-12-07T14:33:35;99882.63;;;4.94;79.50
40730;BME280;26418;50.070;8.436;2022-12-07T14:36:01;99882.84;;;4.87;79.59
40730;BME280;26418;50.070;8.436;2022-12-07T14:38:26;99868.91;;;4.80;79.33
40730;BME280;26418;50.070;8.436;2022-12-07T14:40:53;99881.50;;;4.85;79.73
40730;BME280;26418;50.070;8.436;2022-12-07T14:43:19;99875.59;;;4.78;80.32
40730;BME280;26418;50.070;8.436;2022-12-07T14:45:45;99875.88;;;4.76;80.42
40730;BME280;26418;50.070;8.436;2022-12-07T14:48:12;99870.50;;;4.76;80.75
40730;BME280;26418;50.070;8.436;2022-12-07T14:50:44;99880.97;;;4.78;80.92
40730;BME280;26418;50.070;8.436;2022-12-07T14:53:16;99874.25;;;4.80;81.03
40730;BME280;26418;50.070;8.436;2022-12-07T14:55:42;99869.97;;;4.74;79.90
40730;BME280;26418;50.070;8.436;2022-12-07T14:58:16;99850.66;;;4.67;79.64
40730;BME280;26418;50.070;8.436;2022-12-07T15:00:42;99835.91;;;4.64;79.88
40730;BME280;26418;50.070;8.436;2022-12-07T15:03:27;99871.63;;;4.96;83.13
40730;BME280;26418;50.070;8.436;2022-12-07T15:06:18;99857.72;;;4.94;80.21
40730;BME280;26418;50.070;8.436;2022-12-07T15:08:44;99829.78;;;4.69;79.71
40730;BME280;26418;50.070;8.436;2022-12-07T15:11:14;99827.38;;;4.72;79.04
40730;BME280;26418;50.070;8.436;2022-12-07T15:13:40;99858.50;;;4.94;78.14
40730;BME280;26418;50.070;8.436;2022-12-07T15:16:24;99852.31;;;4.83;78.38
40730;BME280;26418;50.070;8.436;2022-12-07T15:18:50;99872.97;;;4.88;78.32
40730;BME280;26418;50.070;8.436;2022-12-07T15:21:16;99847.97;;;4.67;78.30
40730;BME280;26418;50.070;8.436;2022-12-07T15:23:42;99813.31;;;4.39;79.23
40730;BME280;26418;50.070;8.436;2022-12-07T15:26:10;99850.09;;;4.65;79.61
40730;BME280;26418;50.070;8.436;2022-12-07T15:28:39;99828.06;;;4.42;79.63
40730;BME280;26418;50.070;8.436;2022-12-07T15:31:11;99835.03;;;4.48;79.14